Time;durP1;ratioP1;P1;durP2;ratioP2;P2;SDS_P1;SDS_P2;PMS_P1;PMS_P2;Temp;Humidity;BMP_temperature;BMP_pressure;BME280_temperature;BME280_humidity;BME280_pressure;Samples;Min_cycle;Max_cycle;Signal;HPM_P1;HPM_P2
2021/01/23 00:00:51;;;;;;;56.65;25.60;;;;;;;3.25;77.88;98461.89;120125;1148;23119;-62
2021/01/23 00:03:22;;;;;;;48.63;22.73;;;;;;;3.22;78.05;98449.06;120068;1148;22933;-62
2021/01/23 00:05:51;;;;;;;49.60;21.80;;;;;;;3.20;78.17;98441.27;120056;1148;22983;-62
2021/01/23 00:08:20;;;;;;;52.25;22.55;;;;;;;3.20;78.31;98421.20;120018;1148;22916;-62
2021/01/23 00:10:49;;;;;;;53.17;24.97;;;;;;;3.21;78.63;98440.02;120066;1148;27691;-64
2021/01/23 00:13:19;;;;;;;70.53;30.80;;;;;;;3.22;78.35;98432.52;120108;1149;22951;-63
2021/01/23 00:15:48;;;;;;;71.57;29.93;;;;;;;3.22;78.87;98438.03;120132;1148;23005;-62
2021/01/23 00:18:17;;;;;;;60.53;25.20;;;;;;;3.20;78.95;98424.73;119996;1148;27787;-61
2021/01/23 00:20:46;;;;;;;54.90;25.10;;;;;;;3.22;78.84;98427.01;120130;1148;22966;-62
2021/01/23 00:23:15;;;;;;;58.50;24.37;;;;;;;3.21;78.61;98417.97;120049;1148;22982;-64
2021/01/23 00:25:44;;;;;;;56.80;22.10;;;;;;;3.22;78.86;98413.98;120050;1148;22949;-61
2021/01/23 00:28:13;;;;;;;59.63;23.93;;;;;;;3.22;79.05;98404.95;120016;1148;24741;-62
2021/01/23 00:30:42;;;;;;;59.03;27.43;;;;;;;3.21;79.53;98395.14;120144;1148;22961;-62
2021/01/23 00:33:11;;;;;;;49.60;22.23;;;;;;;3.20;79.65;98393.63;120005;1148;22937;-62
2021/01/23 00:35:40;;;;;;;62.20;23.47;;;;;;;3.18;79.60;98396.10;120029;1148;22892;-62
2021/01/23 00:38:09;;;;;;;51.40;23.77;;;;;;;3.16;79.54;98396.58;120059;1148;27678;-62
2021/01/23 00:40:38;;;;;;;57.07;23.93;;;;;;;3.16;79.70;98379.27;120027;1148;24755;-61
2021/01/23 00:43:07;;;;;;;55.07;21.67;;;;;;;3.15;79.34;98374.97;120031;1148;22937;-62
2021/01/23 00:45:36;;;;;;;55.43;21.67;;;;;;;3.15;79.40;98369.46;120019;1150;22920;-63
2021/01/23 00:48:10;;;;;;;56.03;23.63;;;;;;;3.18;78.97;98363.02;120002;1148;22961;-64
2021/01/23 00:50:39;;;;;;;64.97;25.83;;;;;;;3.18;79.34;98363.02;120070;1148;23093;-62
2021/01/23 00:53:08;;;;;;;73.07;28.10;;;;;;;3.17;79.34;98364.23;120041;1148;22948;-63
2021/01/23 00:55:37;;;;;;;60.90;25.80;;;;;;;3.18;79.70;98374.04;120048;1148;22913;-64
2021/01/23 00:58:07;;;;;;;65.47;26.73;;;;;;;3.19;79.28;98373.56;120034;1151;22937;-63
2021/01/23 01:00:37;;;;;;;64.13;26.50;;;;;;;3.20;78.90;98382.59;120136;1148;22926;-62
2021/01/23 01:03:07;;;;;;;62.75;25.77;;;;;;;3.19;79.35;98395.62;120090;1148;22979;-62
2021/01/23 01:05:36;;;;;;;77.92;33.38;;;;;;;3.18;79.30;98402.38;120060;1148;22917;-63
2021/01/23 01:08:07;;;;;;;98.30;42.35;;;;;;;3.17;78.99;98384.30;120071;1148;27345;-64
2021/01/23 01:10:36;;;;;;;87.23;40.80;;;;;;;3.16;78.98;98376.52;120120;1148;22982;-62
2021/01/23 01:13:05;;;;;;;54.60;23.85;;;;;;;3.14;79.97;98373.47;120085;1148;22925;-62
2021/01/23 01:15:34;;;;;;;53.57;24.30;;;;;;;3.12;79.77;98373.92;120005;1148;22926;-62
2021/01/23 01:18:03;;;;;;;61.50;27.73;;;;;;;3.11;79.58;98369.66;119957;1150;22976;-62
2021/01/23 01:20:33;;;;;;;47.73;21.20;;;;;;;3.07;79.33;98374.59;120254;1151;22951;-62
2021/01/23 01:23:02;;;;;;;55.90;24.33;;;;;;;3.08;79.14;98375.37;120179;1150;24601;-62
2021/01/23 01:25:31;;;;;;;52.30;22.50;;;;;;;3.09;79.44;98376.87;120090;1148;27725;-62
2021/01/23 01:28:00;;;;;;;51.07;21.47;;;;;;;3.08;79.12;98383.63;120042;1148;22960;-64
2021/01/23 01:30:29;;;;;;;47.97;20.43;;;;;;;3.09;79.58;98382.38;120072;1148;22937;-62
2021/01/23 01:32:58;;;;;;;45.77;20.27;;;;;;;3.11;79.43;98385.43;120086;1150;22937;-62
2021/01/23 01:35:27;;;;;;;41.47;19.33;;;;;;;3.12;79.26;98395.98;120153;1148;23058;-62
2021/01/23 01:37:57;;;;;;;41.87;18.00;;;;;;;3.14;79.54;98395.52;120226;1148;23007;-64
2021/01/23 01:40:26;;;;;;;43.27;18.50;;;;;;;3.13;79.19;98391.23;120055;1148;22938;-61
2021/01/23 01:42:57;;;;;;;49.87;20.40;;;;;;;3.11;79.08;98390.95;120150;1148;22957;-62
2021/01/23 01:45:26;;;;;;;41.80;17.77;;;;;;;3.07;79.22;98385.63;120071;1148;27761;-62
2021/01/23 01:47:55;;;;;;;38.07;16.73;;;;;;;2.99;79.69;98370.69;120089;1148;22957;-62
2021/01/23 01:50:25;;;;;;;38.93;16.37;;;;;;;2.93;79.65;98366.30;120125;1148;22982;-62
2021/01/23 01:52:54;;;;;;;41.97;18.47;;;;;;;2.89;79.61;98374.00;120090;1150;22979;-62
2021/01/23 01:55:31;;;;;;;43.55;18.35;;;;;;;2.84;79.89;98377.39;120159;1148;22991;-62
2021/01/23 01:58:00;;;;;;;41.87;17.87;;;;;;;2.76;79.74;98377.00;120037;1148;25801;-61
2021/01/23 02:00:30;;;;;;;39.05;18.98;;;;;;;2.70;80.14;98373.38;120098;1148;26341;-62
2021/01/23 02:03:32;;;;;;;45.25;20.05;;;;;;;2.69;79.81;98374.59;120067;1148;26082;-62
2021/01/23 02:06:12;;;;;;;44.00;19.77;;;;;;;2.76;80.22;98378.98;120110;1148;22941;-62
2021/01/23 02:08:52;;;;;;;49.73;20.70;;;;;;;2.77;80.65;98377.77;120269;1148;23111;-62
2021/01/23 02:11:32;;;;;;;45.43;20.77;;;;;;;2.74;80.71;98376.71;120043;1148;22947;-62
2021/01/23 02:14:14;;;;;;;44.63;20.57;;;;;;;2.73;80.70;98369.66;120291;1148;22951;-61
2021/01/23 02:16:47;;;;;;;42.53;20.67;;;;;;;2.71;80.83;98363.13;120086;1148;26015;-63
2021/01/23 02:19:39;;;;;;;46.53;21.10;;;;;;;2.69;80.84;98351.81;120095;1150;22934;-63
2021/01/23 02:22:22;;;;;;;44.27;20.33;;;;;;;2.68;81.70;98344.77;120060;1148;23048;-62
2021/01/23 02:24:52;;;;;;;40.40;19.00;;;;;;;2.67;81.23;98346.76;120049;1148;23016;-61
2021/01/23 02:27:35;;;;;;;46.55;21.20;;;;;;;2.68;81.37;98342.78;120175;1148;22926;-62
2021/01/23 02:30:17;;;;;;;44.07;20.33;;;;;;;2.72;81.09;98337.08;120065;1148;26114;-61
2021/01/23 02:32:50;;;;;;;39.40;19.07;;;;;;;2.78;81.14;98346.22;120027;1148;27666;-61
2021/01/23 02:35:19;;;;;;;42.80;19.97;;;;;;;2.81;81.31;98345.28;120204;1148;27476;-61
2021/01/23 02:37:50;;;;;;;43.87;20.17;;;;;;;2.85;81.44;98343.11;120135;1148;27089;-61
2021/01/23 02:40:21;;;;;;;41.20;18.43;;;;;;;2.88;81.24;98334.64;120064;1148;22990;-61
2021/01/23 02:42:50;;;;;;;41.30;17.20;;;;;;;2.93;81.33;98327.72;120116;1149;22937;-61
2021/01/23 02:45:19;;;;;;;41.50;18.73;;;;;;;2.97;81.32;98322.78;120137;1148;24567;-62
2021/01/23 02:47:48;;;;;;;50.60;21.63;;;;;;;3.02;81.99;98314.59;120056;1151;25016;-61
2021/01/23 02:50:18;;;;;;;46.63;17.83;;;;;;;3.04;81.65;98294.84;120122;1149;22922;-61
2021/01/23 02:52:58;;;;;;;37.33;17.30;;;;;;;3.08;82.03;98289.91;120050;1150;26385;-61
2021/01/23 02:55:32;;;;;;;35.43;15.80;;;;;;;3.09;82.34;98286.66;120142;1148;22961;-61
2021/01/23 02:58:06;;;;;;;31.80;13.35;;;;;;;3.11;82.34;98275.92;120142;1149;25942;-62
2021/01/23 03:00:36;;;;;;;35.27;14.43;;;;;;;3.13;82.30;98264.41;120125;1149;23086;-62
2021/01/23 03:03:06;;;;;;;33.33;13.40;;;;;;;3.14;82.49;98247.41;120187;1151;24649;-61
2021/01/23 03:05:37;;;;;;;31.03;13.23;;;;;;;3.16;82.28;98255.97;120127;1150;22951;-62
2021/01/23 03:08:05;;;;;;;;;;;;;;;3.18;82.56;98267.27;120098;1151;23034;-61
2021/01/23 03:10:36;;;;;;;36.83;13.50;;;;;;;3.22;82.54;98267.08;120093;1148;23218;-63
2021/01/23 03:13:06;;;;;;;28.30;11.67;;;;;;;3.24;82.50;98259.09;120122;1150;22952;-62
2021/01/23 03:15:37;;;;;;;32.42;13.22;;;;;;;3.27;82.14;98244.33;120029;1151;22920;-62
2021/01/23 03:18:07;;;;;;;30.83;12.60;;;;;;;3.29;82.40;98239.86;120113;1148;25101;-62
2021/01/23 03:20:37;;;;;;;29.45;12.25;;;;;;;3.33;82.64;98236.92;120022;1148;22930;-61
2021/01/23 03:23:06;;;;;;;32.67;12.73;;;;;;;3.36;82.41;98219.41;124426;1149;23979;-62
2021/01/23 03:25:35;;;;;;;29.20;12.50;;;;;;;3.39;82.35;98223.20;120261;1148;26008;-61
2021/01/23 03:28:05;;;;;;;28.90;13.03;;;;;;;3.41;82.49;98227.02;120253;1150;26363;-61
2021/01/23 03:30:35;;;;;;;30.12;13.90;;;;;;;3.45;83.00;98235.08;120136;1149;22955;-62
2021/01/23 03:33:05;;;;;;;36.93;15.70;;;;;;;3.47;82.51;98233.37;120152;1149;23044;-62
2021/01/23 03:35:34;;;;;;;34.98;14.85;;;;;;;3.52;82.78;98231.94;120101;1150;23028;-62
2021/01/23 03:38:03;;;;;;;30.00;12.70;;;;;;;3.55;82.42;98234.48;120144;1150;23008;-62
2021/01/23 03:40:32;;;;;;;28.10;12.20;;;;;;;3.58;82.63;98243.81;120230;1148;23231;-62
2021/01/23 03:43:02;;;;;;;29.63;13.37;;;;;;;3.60;82.42;98242.06;120234;1149;22948;-64
2021/01/23 03:45:31;;;;;;;35.60;14.07;;;;;;;3.63;82.40;98243.11;120233;1149;22941;-63
2021/01/23 03:48:00;;;;;;;26.93;13.10;;;;;;;3.65;82.72;98244.16;120233;1148;22931;-63
2021/01/23 03:50:29;;;;;;;30.73;13.37;;;;;;;3.67;82.81;98249.19;120049;1148;23007;-64
2021/01/23 03:52:59;;;;;;;34.07;12.80;;;;;;;3.68;82.77;98248.73;120035;1148;22954;-64
2021/01/23 03:55:28;;;;;;;29.77;12.70;;;;;;;3.70;82.88;98240.73;120159;1148;22958;-63
2021/01/23 03:57:59;;;;;;;34.27;13.67;;;;;;;3.72;82.78;98235.48;120032;1150;24600;-64
2021/01/23 04:00:30;;;;;;;31.97;14.03;;;;;;;3.75;82.70;98230.98;120220;1148;26062;-63
2021/01/23 04:02:59;;;;;;;33.65;13.95;;;;;;;3.77;83.15;98226.51;120084;1150;26633;-63
2021/01/23 04:05:28;;;;;;;28.53;12.20;;;;;;;3.76;82.98;98213.20;120262;1148;22933;-63
2021/01/23 04:07:57;;;;;;;30.93;13.20;;;;;;;3.77;82.93;98220.98;120019;1148;23030;-63
2021/01/23 04:10:27;;;;;;;34.17;13.50;;;;;;;3.80;83.12;98211.76;120065;1148;22946;-62
2021/01/23 04:12:56;;;;;;;34.92;14.20;;;;;;;3.81;83.15;98204.98;120107;1148;26063;-63
2021/01/23 04:15:26;;;;;;;27.73;12.77;;;;;;;3.82;83.27;98178.91;120165;1148;22936;-62
2021/01/23 04:17:55;;;;;;;33.90;13.77;;;;;;;3.83;83.23;98168.61;120098;1150;22929;-62
2021/01/23 04:20:26;;;;;;;37.57;14.03;;;;;;;3.83;83.44;98168.61;120076;1148;28391;-62
2021/01/23 04:22:55;;;;;;;37.57;15.00;;;;;;;3.86;83.38;98167.66;120111;1150;22950;-62
2021/01/23 04:25:24;;;;;;;37.30;15.90;;;;;;;3.87;83.51;98167.16;120021;1148;22965;-62
2021/01/23 04:27:54;;;;;;;34.07;15.07;;;;;;;3.89;83.51;98167.44;120024;1148;23492;-62
2021/01/23 04:30:24;;;;;;;34.03;15.07;;;;;;;3.90;83.24;98162.69;120152;1150;22926;-62
2021/01/23 04:32:54;;;;;;;33.25;13.98;;;;;;;3.91;83.42;98148.39;120435;1149;22944;-62
2021/01/23 04:35:23;;;;;;;36.50;15.10;;;;;;;3.92;83.39;98147.16;120200;1148;26083;-63
2021/01/23 04:37:52;;;;;;;33.93;14.60;;;;;;;3.93;83.49;98143.14;120371;1148;23094;-62
2021/01/23 04:40:21;;;;;;;34.77;15.73;;;;;;;3.95;83.39;98140.66;120072;1150;22951;-62
2021/01/23 04:42:50;;;;;;;36.40;16.80;;;;;;;3.97;83.52;98138.17;120048;1148;22951;-62
2021/01/23 04:45:20;;;;;;;36.65;16.95;;;;;;;4.00;83.24;98139.97;119946;1148;28341;-62
2021/01/23 04:47:51;;;;;;;37.87;18.30;;;;;;;4.03;83.62;98138.98;120503;1148;23005;-66
2021/01/23 04:50:20;;;;;;;38.70;17.60;;;;;;;4.05;83.49;98144.05;120093;1148;29885;-65
2021/01/23 04:52:49;;;;;;;35.95;16.20;;;;;;;4.07;83.50;98145.09;119971;1148;24749;-65
2021/01/23 04:55:18;;;;;;;41.30;16.83;;;;;;;4.09;83.45;98139.84;120020;1148;23084;-67
2021/01/23 04:57:47;;;;;;;38.27;16.50;;;;;;;4.13;83.88;98128.56;120003;1148;22926;-68
2021/01/23 05:00:17;;;;;;;41.33;18.50;;;;;;;4.16;83.61;98126.84;120038;1149;28358;-67
2021/01/23 05:03:00;;;;;;;38.02;16.25;;;;;;;4.16;83.55;98116.53;119982;1148;23066;-67
2021/01/23 05:05:29;;;;;;;35.75;16.55;;;;;;;4.18;83.53;98113.30;120252;1148;27791;-67
2021/01/23 05:08:11;;;;;;;38.80;18.40;;;;;;;4.19;83.70;98101.77;120052;1151;23173;-67
2021/01/23 05:10:41;;;;;;;42.55;19.60;;;;;;;4.20;83.71;98085.96;120014;1149;23061;-67
2021/01/23 05:13:15;;;;;;;44.15;19.95;;;;;;;4.21;83.45;98101.27;120074;1148;23090;-65
2021/01/23 05:15:46;;;;;;;42.37;17.77;;;;;;;4.21;83.65;98090.22;120120;1148;27726;-64
2021/01/23 05:18:17;;;;;;;39.20;16.85;;;;;;;4.22;83.75;98078.68;120183;1148;23031;-65
2021/01/23 05:20:47;;;;;;;33.98;17.37;;;;;;;4.23;83.68;98082.97;120111;1148;23090;-65
2021/01/23 05:23:20;;;;;;;43.30;18.60;;;;;;;4.24;83.73;98072.69;120151;1148;22958;-64
2021/01/23 05:25:51;;;;;;;42.83;18.77;;;;;;;4.25;83.91;98068.66;120092;1148;22947;-65
2021/01/23 05:28:28;;;;;;;43.43;20.77;;;;;;;4.25;83.71;98063.91;120128;1149;22978;-64
2021/01/23 05:30:58;;;;;;;40.47;18.73;;;;;;;4.28;83.89;98067.70;120159;1148;28701;-67
2021/01/23 05:33:28;;;;;;;;;;;;;;;4.29;83.83;98061.69;120102;1148;22957;-65
2021/01/23 05:36:00;;;;;;;40.43;16.90;;;;;;;4.29;83.70;98056.16;120075;1149;21710;-64
2021/01/23 05:38:31;;;;;;;46.90;18.40;;;;;;;4.30;83.73;98051.40;119970;1148;24603;-65
2021/01/23 05:41:13;;;;;;;38.53;16.90;;;;;;;4.31;84.00;98041.85;120076;1149;26362;-65
2021/01/23 05:43:46;;;;;;;39.00;16.87;;;;;;;4.31;83.79;98034.33;119978;1148;27335;-65
2021/01/23 05:46:16;;;;;;;41.20;19.23;;;;;;;4.32;83.91;98035.09;120037;1148;22937;-64
2021/01/23 05:48:47;;;;;;;38.80;18.00;;;;;;;4.33;84.19;98031.06;120060;1150;22951;-65
2021/01/23 05:51:18;;;;;;;40.37;17.13;;;;;;;4.32;84.19;98038.62;120002;1148;25525;-66
2021/01/23 05:53:49;;;;;;;38.20;18.10;;;;;;;4.32;84.16;98026.80;119968;1148;23078;-65
2021/01/23 05:56:19;;;;;;;43.97;20.70;;;;;;;4.32;84.19;98024.81;120169;1148;22929;-65
2021/01/23 05:58:47;;;;;;;48.27;22.23;;;;;;;4.35;83.96;98029.34;120074;1148;23087;-65
2021/01/23 06:01:18;;;;;;;47.13;23.47;;;;;;;4.36;84.28;98032.86;120006;1148;25733;-65
2021/01/23 06:03:49;;;;;;;46.80;24.60;;;;;;;4.37;84.21;98032.36;119985;1149;22951;-65
2021/01/23 06:06:18;;;;;;;46.77;21.93;;;;;;;4.38;84.31;98022.08;120102;1148;23031;-65
2021/01/23 06:08:49;;;;;;;47.35;22.70;;;;;;;4.39;84.36;98020.81;120129;1150;22936;-65
2021/01/23 06:11:39;;;;;;;50.67;22.87;;;;;;;4.41;84.31;98027.37;120053;1148;22965;-66
2021/01/23 06:14:39;;;;;;;43.28;19.12;;;;;;;4.42;84.60;98014.33;120028;1148;23061;-68
2021/01/23 06:17:08;;;;;;;43.63;21.47;;;;;;;4.43;84.22;98007.56;120067;1148;22961;-68
2021/01/23 06:19:42;;;;;;;42.70;19.93;;;;;;;4.44;84.26;98012.59;120118;1148;22926;-67
2021/01/23 06:22:12;;;;;;;49.53;21.67;;;;;;;4.46;84.16;98012.86;120159;1149;23019;-67
2021/01/23 06:24:56;;;;;;;53.73;23.47;;;;;;;4.48;84.09;98002.07;120754;1148;23093;-66
2021/01/23 06:27:48;;;;;;;52.45;22.60;;;;;;;4.49;84.38;98008.36;120044;1148;23107;-66
2021/01/23 06:30:32;;;;;;;49.80;21.37;;;;;;;4.50;84.29;98001.57;122404;1148;26720;-66
2021/01/23 06:33:21;;;;;;;56.00;23.90;;;;;;;4.52;84.25;97999.07;120214;1148;22926;-66
2021/01/23 06:36:19;;;;;;;53.33;21.80;;;;;;;4.53;84.43;97993.05;119993;1148;26082;-66
2021/01/23 06:39:03;;;;;;;71.50;28.53;;;;;;;4.56;84.09;97999.59;120121;1148;24605;-66
2021/01/23 06:41:33;;;;;;;73.23;29.13;;;;;;;4.58;84.39;97991.58;120154;1151;22925;-66
2021/01/23 06:44:15;;;;;;;83.03;31.75;;;;;;;4.59;84.14;97980.02;120046;1148;23010;-66
2021/01/23 06:46:57;;;;;;;88.05;33.95;;;;;;;4.61;84.10;97996.13;120090;1148;22955;-66
2021/01/23 06:49:27;;;;;;;122.77;52.40;;;;;;;4.62;84.32;97990.10;120354;1148;23090;-65
2021/01/23 06:52:07;;;;;;;165.50;64.15;;;;;;;4.65;84.73;97980.08;120111;1149;23278;-66
2021/01/23 06:54:36;;;;;;;179.00;68.65;;;;;;;4.67;84.43;97967.28;120100;1149;22925;-66
2021/01/23 06:57:07;;;;;;;201.47;75.00;;;;;;;4.69;84.12;97973.07;120064;1150;23129;-65
2021/01/23 06:59:37;;;;;;;129.07;48.70;;;;;;;4.69;84.31;97975.84;120189;1149;22937;-65
2021/01/23 07:02:08;;;;;;;99.67;36.93;;;;;;;4.70;84.27;97966.28;120099;1150;23004;-65
2021/01/23 07:04:44;;;;;;;65.03;29.75;;;;;;;4.72;84.40;97972.06;120065;1150;27655;-65
2021/01/23 07:07:14;;;;;;;65.43;27.33;;;;;;;4.73;84.43;97962.54;119956;1151;23068;-66
2021/01/23 07:09:48;;;;;;;85.60;38.58;;;;;;;4.76;84.69;97971.83;120320;1149;22930;-66
2021/01/23 07:12:38;;;;;;;65.30;32.70;;;;;;;4.76;84.33;97958.77;120190;1148;22895;-66
2021/01/23 07:15:10;;;;;;;61.23;29.77;;;;;;;4.78;84.48;97958.27;120039;1150;22954;-66
2021/01/23 07:17:41;;;;;;;86.03;44.63;;;;;;;4.80;84.63;97947.50;120010;1149;24015;-65
2021/01/23 07:20:13;;;;;;;124.00;50.73;;;;;;;4.82;84.49;97953.30;120090;1149;27813;-66
2021/01/23 07:22:44;;;;;;;106.40;42.30;;;;;;;4.84;84.75;97951.52;120087;1151;22943;-65
2021/01/23 07:25:15;;;;;;;84.13;35.67;;;;;;;4.86;84.43;97951.78;120075;1149;23495;-65
2021/01/23 07:27:45;;;;;;;85.73;31.60;;;;;;;4.88;84.58;97945.78;120011;1149;23090;-65
2021/01/23 07:30:18;;;;;;;72.15;29.05;;;;;;;4.91;84.48;97944.77;120178;1149;23005;-65
2021/01/23 07:32:49;;;;;;;63.07;26.43;;;;;;;4.94;84.57;97943.80;120084;1148;26768;-67
2021/01/23 07:35:19;;;;;;;49.27;22.22;;;;;;;4.97;84.87;97937.25;120367;1149;22957;-67
2021/01/23 07:37:51;;;;;;;52.17;21.73;;;;;;;5.02;84.83;97933.77;120094;1148;23239;-67
2021/01/23 07:40:24;;;;;;;59.37;23.80;;;;;;;5.05;84.84;97932.76;120257;1149;22937;-67
2021/01/23 07:42:57;;;;;;;59.87;25.30;;;;;;;5.10;84.92;97934.80;120177;1149;26350;-67
2021/01/23 07:45:26;;;;;;;60.27;26.67;;;;;;;5.16;85.17;97938.34;120569;1149;22951;-67
2021/01/23 07:48:00;;;;;;;48.65;23.05;;;;;;;5.20;85.19;97938.85;119956;1149;23383;-67
2021/01/23 07:50:37;;;;;;;55.70;24.10;;;;;;;5.26;84.71;97928.56;119933;1149;26072;-67
2021/01/23 07:53:18;;;;;;;50.37;22.03;;;;;;;5.33;85.50;97941.92;120027;1149;22961;-67
2021/01/23 07:55:50;;;;;;;46.17;20.17;;;;;;;5.38;85.18;97943.93;119929;1149;26206;-67
2021/01/23 07:58:19;;;;;;;43.45;19.50;;;;;;;5.45;85.17;97937.92;120983;1148;27398;-67
2021/01/23 08:00:49;;;;;;;37.57;17.70;;;;;;;5.52;85.51;97940.21;119946;1148;28995;-69
2021/01/23 08:03:33;;;;;;;38.98;16.77;;;;;;;5.60;85.28;97932.92;119461;1148;22979;-66
2021/01/23 08:06:03;;;;;;;33.77;13.10;;;;;;;5.69;85.53;97918.06;119675;1148;22946;-66
2021/01/23 08:08:33;;;;;;;33.53;12.50;;;;;;;5.78;85.83;97923.38;121144;1148;22955;-67
2021/01/23 08:11:04;;;;;;;35.78;12.18;;;;;;;5.88;85.57;97908.05;120522;1149;23402;-67
2021/01/23 08:13:33;;;;;;;;;;;;;;;5.99;85.63;97918.38;119896;1148;26344;-66
2021/01/23 08:16:12;;;;;;;30.65;10.80;;;;;;;6.09;85.46;97916.85;119979;1148;21566;-66
2021/01/23 08:18:42;;;;;;;29.30;10.95;;;;;;;6.18;85.27;97908.30;119755;1148;23038;-68
2021/01/23 08:21:19;;;;;;;34.17;11.37;;;;;;;6.26;85.50;97910.05;120439;1148;23116;-65
2021/01/23 08:23:50;;;;;;;31.50;10.90;;;;;;;6.35;85.17;97906.99;119806;1148;22929;-65
2021/01/23 08:26:19;;;;;;;30.10;11.40;;;;;;;6.43;85.06;97893.39;121889;1149;23022;-64
2021/01/23 08:28:50;;;;;;;31.90;11.57;;;;;;;6.50;84.95;97895.63;119617;1148;22922;-66
2021/01/23 08:31:22;;;;;;;23.23;8.37;;;;;;;6.58;84.97;97893.84;120306;1148;23006;-65
2021/01/23 08:33:55;;;;;;;29.90;10.03;;;;;;;6.65;85.00;97885.00;120332;1148;26765;-65
2021/01/23 08:36:24;;;;;;;26.60;8.53;;;;;;;6.72;85.25;97873.40;119982;1148;22936;-65
2021/01/23 08:39:00;;;;;;;24.65;8.08;;;;;;;6.81;85.16;97878.64;120155;1148;22910;-66
2021/01/23 08:41:30;;;;;;;30.07;8.57;;;;;;;6.89;84.53;97879.61;120731;1148;23036;-66
2021/01/23 08:43:59;;;;;;;21.73;8.23;;;;;;;6.97;84.99;97880.58;120372;1147;23060;-68
2021/01/23 08:46:29;;;;;;;24.47;8.73;;;;;;;7.07;84.92;97878.28;120546;1148;23058;-65
2021/01/23 08:49:00;;;;;;;21.17;6.83;;;;;;;7.14;84.11;97877.72;119749;1150;22944;-64
2021/01/23 08:51:30;;;;;;;19.65;6.42;;;;;;;7.22;84.12;97875.94;119756;1148;23437;-65
2021/01/23 08:53:59;;;;;;;21.00;6.70;;;;;;;7.27;84.24;97873.13;119875;1148;23164;-65
2021/01/23 08:56:28;;;;;;;18.13;5.33;;;;;;;7.33;83.99;97878.62;120350;1148;22951;-68
2021/01/23 08:58:57;;;;;;;16.60;4.93;;;;;;;7.41;84.13;97873.30;119623;1148;26347;-64
2021/01/23 09:01:26;;;;;;;19.17;5.30;;;;;;;7.45;83.85;97876.56;119792;1148;27398;-63
2021/01/23 09:03:57;;;;;;;19.67;5.57;;;;;;;7.48;83.66;97881.06;120504;1148;23034;-63
2021/01/23 09:06:27;;;;;;;17.17;4.40;;;;;;;7.54;83.77;97870.67;120539;1148;23079;-63
2021/01/23 09:08:57;;;;;;;18.35;5.22;;;;;;;7.59;83.44;97876.20;120400;1148;27797;-63
2021/01/23 09:11:27;;;;;;;21.07;6.00;;;;;;;7.65;83.22;97884.48;119807;1148;26395;-63
2021/01/23 09:13:56;;;;;;;19.23;5.60;;;;;;;7.69;83.24;97879.41;119883;1148;22948;-63
2021/01/23 09:16:27;;;;;;;16.45;4.80;;;;;;;7.74;83.82;97873.80;120431;1148;22964;-63
2021/01/23 09:18:56;;;;;;;21.83;4.97;;;;;;;7.80;83.05;97879.33;121281;1148;22964;-64
2021/01/23 09:21:26;;;;;;;16.93;4.30;;;;;;;7.84;83.40;97869.42;119948;1148;22913;-64
2021/01/23 09:23:55;;;;;;;20.00;4.90;;;;;;;7.90;83.03;97877.73;119844;1148;22926;-63
2021/01/23 09:26:24;;;;;;;16.33;5.27;;;;;;;7.94;82.84;97878.96;119902;1148;24688;-63
2021/01/23 09:28:53;;;;;;;20.67;5.27;;;;;;;7.98;83.31;97884.98;119778;1150;22934;-63
2021/01/23 09:31:22;;;;;;;14.60;4.13;;;;;;;8.03;83.20;97875.08;119734;1148;26670;-63
2021/01/23 09:33:51;;;;;;;14.07;3.70;;;;;;;8.08;83.39;97871.51;120065;1148;22990;-62
2021/01/23 09:36:21;;;;;;;15.45;4.25;;;;;;;8.15;83.10;97874.45;119812;1148;25931;-62
2021/01/23 09:38:50;;;;;;;17.77;4.00;;;;;;;8.23;82.33;97876.67;119986;1148;23031;-61
2021/01/23 09:41:20;;;;;;;14.28;2.55;;;;;;;8.28;82.61;97879.42;119774;1148;26066;-62
2021/01/23 09:43:49;;;;;;;12.45;3.30;;;;;;;8.32;82.15;97865.98;119939;1148;23249;-62
2021/01/23 09:46:19;;;;;;;17.10;4.30;;;;;;;8.36;82.78;97872.02;119804;1148;22951;-62
2021/01/23 09:48:48;;;;;;;24.90;5.43;;;;;;;8.41;82.27;97867.67;119823;1148;25966;-63
2021/01/23 09:51:18;;;;;;;17.65;4.90;;;;;;;8.44;82.02;97858.30;120194;1148;23102;-69
2021/01/23 09:53:47;;;;;;;14.00;3.20;;;;;;;8.48;82.83;97859.52;119902;1148;23081;-65
2021/01/23 09:56:17;;;;;;;14.40;3.57;;;;;;;8.52;82.36;97859.22;120105;1148;22968;-67
2021/01/23 09:58:46;;;;;;;14.30;3.07;;;;;;;8.57;82.45;97852.83;120123;1148;22961;-67
2021/01/23 10:01:17;;;;;;;13.47;2.70;;;;;;;8.61;81.48;97856.06;120980;1148;23917;-66
2021/01/23 10:03:47;;;;;;;13.37;2.63;;;;;;;8.64;82.01;97864.14;121227;1148;22958;-66
2021/01/23 10:06:17;;;;;;;12.20;2.77;;;;;;;8.68;81.92;97853.47;119838;1148;24702;-70
2021/01/23 10:08:46;;;;;;;12.75;2.12;;;;;;;8.72;81.27;97853.92;120166;1148;23018;-67
2021/01/23 10:11:15;;;;;;;14.30;2.93;;;;;;;8.77;81.97;97849.58;119953;1148;23033;-67
2021/01/23 10:13:45;;;;;;;11.60;2.27;;;;;;;8.83;81.53;97845.45;119999;1148;23989;-65
2021/01/23 10:16:14;;;;;;;12.50;2.60;;;;;;;8.92;80.76;97855.44;121279;1148;23144;-69
2021/01/23 10:18:44;;;;;;;10.63;1.97;;;;;;;8.98;81.22;97855.39;119940;1148;22913;-61
2021/01/23 10:21:13;;;;;;;9.67;1.70;;;;;;;9.05;80.71;97854.77;120358;1148;23103;-68
2021/01/23 10:23:42;;;;;;;8.65;2.00;;;;;;;9.12;80.35;97866.08;119937;1148;22944;-65
2021/01/23 10:26:12;;;;;;;8.57;1.63;;;;;;;9.22;80.12;97861.64;120007;1148;23093;-59
2021/01/23 10:28:40;;;;;;;7.53;1.33;;;;;;;9.32;80.37;97854.41;119917;1150;23022;-66
2021/01/23 10:31:10;;;;;;;10.65;1.70;;;;;;;9.41;80.40;97856.81;120047;1148;23979;-62
2021/01/23 10:33:39;;;;;;;6.45;1.60;;;;;;;9.48;79.88;97870.11;119823;1148;22937;-62
2021/01/23 10:36:09;;;;;;;7.83;1.70;;;;;;;9.54;79.34;97856.09;119936;1150;22910;-60
2021/01/23 10:38:38;;;;;;;8.33;2.10;;;;;;;9.57;79.13;97855.81;120190;1148;26392;-61
2021/01/23 10:41:07;;;;;;;8.33;1.73;;;;;;;9.61;79.27;97859.04;119826;1148;22941;-61
2021/01/23 10:43:36;;;;;;;9.63;2.00;;;;;;;9.65;79.22;97847.58;119879;1150;27588;-61
2021/01/23 10:46:05;;;;;;;6.60;1.67;;;;;;;9.67;78.66;97864.52;120158;1148;23055;-62
2021/01/23 10:48:34;;;;;;;8.50;1.70;;;;;;;9.68;79.34;97858.41;119851;1149;23090;-61
2021/01/23 10:51:04;;;;;;;8.90;1.60;;;;;;;9.69;78.25;97848.02;120001;1150;22954;-61
2021/01/23 10:53:34;;;;;;;8.88;1.75;;;;;;;9.72;78.53;97849.77;120313;1150;23334;-61
2021/01/23 10:56:05;;;;;;;8.30;1.80;;;;;;;9.73;78.99;97849.22;120443;1149;22895;-62
2021/01/23 10:58:35;;;;;;;8.53;2.37;;;;;;;9.75;78.13;97862.61;120658;1148;22918;-62
2021/01/23 11:01:04;;;;;;;6.97;1.40;;;;;;;9.75;78.39;97866.16;119968;1148;24337;-62
2021/01/23 11:03:33;;;;;;;7.77;1.60;;;;;;;9.76;78.05;97850.20;120153;1148;27326;-62
2021/01/23 11:06:03;;;;;;;9.10;1.70;;;;;;;9.75;77.64;97845.89;120155;1148;23017;-62
2021/01/23 11:08:32;;;;;;;7.30;1.87;;;;;;;9.74;77.66;97861.13;119804;1150;23099;-62
2021/01/23 11:11:01;;;;;;;9.60;1.77;;;;;;;9.74;77.79;97866.70;119868;1150;25948;-63
2021/01/23 11:13:30;;;;;;;9.97;2.10;;;;;;;9.73;77.26;97845.67;119865;1149;27067;-62
2021/01/23 11:16:01;;;;;;;8.20;1.83;;;;;;;9.72;76.99;97849.77;119930;1151;23043;-62
2021/01/23 11:18:30;;;;;;;6.77;1.50;;;;;;;9.70;76.91;97857.89;119853;1148;23511;-62
2021/01/23 11:20:59;;;;;;;9.00;1.90;;;;;;;9.67;77.21;97865.27;119960;1148;25571;-62
2021/01/23 11:23:29;;;;;;;12.10;2.10;;;;;;;9.64;76.78;97846.09;120096;1150;23039;-62
2021/01/23 11:25:58;;;;;;;7.90;1.60;;;;;;;9.62;77.21;97863.31;119856;1149;22881;-61
2021/01/23 11:28:28;;;;;;;8.43;1.63;;;;;;;9.61;77.13;97861.06;119813;1150;22964;-62
2021/01/23 11:30:57;;;;;;;9.33;1.70;;;;;;;9.59;77.08;97874.77;120236;1148;28767;-63
2021/01/23 11:33:26;;;;;;;6.53;1.63;;;;;;;9.57;76.49;97877.33;119893;1148;22958;-63
2021/01/23 11:35:56;;;;;;;9.23;2.03;;;;;;;9.54;77.02;97881.92;119983;1148;23347;-65
2021/01/23 11:38:25;;;;;;;6.05;1.65;;;;;;;9.52;76.53;97875.37;119834;1148;25771;-61
2021/01/23 11:40:55;;;;;;;10.20;2.05;;;;;;;9.50;76.65;97873.13;119893;1148;27745;-65